createdAt,value
2023-05-29T00:02:02.847Z,2.20
2023-05-29T00:04:30.564Z,2.53
2023-05-29T00:06:58.188Z,2.93
2023-05-29T00:09:26.456Z,3.43
2023-05-29T00:11:54.283Z,2.50
2023-05-29T00:14:23.615Z,2.50
2023-05-29T00:16:52.448Z,2.07
2023-05-29T00:19:20.852Z,2.23
2023-05-29T00:21:49.291Z,2.30
2023-05-29T00:24:18.229Z,1.97
2023-05-29T00:26:45.893Z,2.50
2023-05-29T00:29:13.425Z,5.87
2023-05-29T00:31:41.034Z,3.70
2023-05-29T00:34:08.611Z,5.27
2023-05-29T00:36:36.356Z,4.77
2023-05-29T00:39:04.043Z,3.70
2023-05-29T00:41:31.636Z,3.20
2023-05-29T00:43:59.191Z,3.10
2023-05-29T00:46:27.497Z,2.50
2023-05-29T00:48:55.694Z,2.87
2023-05-29T00:51:23.936Z,2.93
2023-05-29T00:53:53.070Z,3.33
2023-05-29T00:56:22.408Z,2.80
2023-05-29T00:58:52.969Z,2.47
2023-05-29T01:01:22.675Z,2.17
2023-05-29T01:03:50.673Z,2.33
2023-05-29T01:06:18.258Z,3.10
2023-05-29T01:08:45.814Z,2.17
2023-05-29T01:11:37.199Z,3.07
2023-05-29T01:14:11.341Z,2.10
2023-05-29T01:17:21.398Z,2.50
2023-05-29T01:20:31.029Z,2.10
2023-05-29T01:23:49.317Z,2.50
2023-05-29T01:27:12.428Z,2.90
2023-05-29T01:29:43.912Z,2.70
2023-05-29T01:32:12.826Z,2.90
2023-05-29T01:34:40.492Z,3.10
2023-05-29T01:37:08.038Z,4.00
2023-05-29T01:39:35.972Z,3.40
2023-05-29T01:42:04.593Z,4.00
2023-05-29T01:44:32.719Z,2.77
2023-05-29T01:47:00.699Z,2.97
2023-05-29T01:49:29.432Z,3.90
2023-05-29T01:51:57.114Z,3.53
2023-05-29T01:54:24.713Z,3.60
2023-05-29T01:56:53.128Z,3.17
2023-05-29T01:59:21.743Z,2.80
2023-05-29T02:01:49.873Z,2.50
2023-05-29T02:04:17.529Z,2.47
2023-05-29T02:06:45.140Z,2.07
2023-05-29T02:09:13.166Z,2.17
2023-05-29T02:11:45.872Z,3.10
2023-05-29T02:14:14.050Z,4.00
2023-05-29T02:16:42.448Z,4.70
2023-05-29T02:19:10.390Z,5.20
2023-05-29T02:21:42.263Z,4.20
2023-05-29T02:24:09.773Z,4.13
2023-05-29T02:26:41.454Z,4.80
2023-05-29T02:29:09.533Z,2.30
2023-05-29T02:31:37.100Z,3.00
2023-05-29T02:34:04.665Z,2.60
2023-05-29T02:36:32.304Z,2.70
2023-05-29T02:38:59.874Z,2.70
2023-05-29T02:41:27.576Z,2.97
2023-05-29T02:43:55.126Z,2.93
2023-05-29T02:46:23.319Z,3.20
2023-05-29T02:48:51.021Z,2.40
2023-05-29T02:51:18.644Z,2.40
2023-05-29T02:53:46.570Z,3.73
2023-05-29T02:56:14.099Z,5.50
2023-05-29T02:58:41.647Z,5.70
2023-05-29T03:01:09.532Z,10.40
2023-05-29T03:03:37.125Z,6.10
2023-05-29T03:06:05.079Z,3.17
2023-05-29T03:08:34.848Z,3.17
2023-05-29T03:11:02.376Z,3.27
2023-05-29T03:13:29.919Z,2.87
2023-05-29T03:15:58.492Z,4.10
2023-05-29T03:18:26.021Z,3.33
2023-05-29T03:20:53.824Z,3.20
2023-05-29T03:23:21.638Z,2.93
2023-05-29T03:25:49.185Z,2.67
2023-05-29T03:28:16.823Z,2.97
2023-05-29T03:30:44.339Z,10.03
2023-05-29T03:33:11.905Z,5.53
2023-05-29T03:35:39.374Z,2.73
2023-05-29T03:38:06.939Z,3.40
2023-05-29T03:40:34.425Z,2.90
2023-05-29T03:43:01.940Z,2.77
2023-05-29T03:45:29.449Z,2.80
2023-05-29T03:47:57.110Z,2.60
2023-05-29T03:50:24.623Z,2.40
2023-05-29T03:52:52.142Z,2.40
2023-05-29T03:55:19.660Z,2.33
2023-05-29T03:57:47.172Z,2.40
2023-05-29T04:00:15.048Z,2.23
2023-05-29T04:02:42.941Z,3.20
2023-05-29T04:05:10.774Z,3.20
2023-05-29T04:07:38.513Z,2.60
2023-05-29T04:10:07.982Z,2.63
2023-05-29T04:12:35.892Z,2.30
2023-05-29T04:15:04.278Z,2.60
2023-05-29T04:17:31.843Z,3.77
2023-05-29T04:19:59.734Z,2.77
2023-05-29T04:22:27.405Z,2.23
2023-05-29T04:24:54.966Z,2.23
2023-05-29T04:27:22.500Z,2.47
2023-05-29T04:29:50.035Z,2.60
2023-05-29T04:32:18.261Z,2.50
2023-05-29T04:34:45.803Z,1.97
2023-05-29T04:37:14.831Z,2.33
2023-05-29T04:39:42.353Z,2.47
2023-05-29T04:42:10.070Z,2.30
2023-05-29T04:44:37.660Z,2.40
2023-05-29T04:47:05.532Z,2.40
2023-05-29T04:49:33.148Z,2.90
2023-05-29T04:52:01.894Z,3.20
2023-05-29T04:54:29.602Z,2.60
2023-05-29T04:56:57.131Z,2.93
2023-05-29T04:59:24.627Z,2.80
2023-05-29T05:01:52.302Z,3.07
2023-05-29T05:04:19.919Z,2.60
2023-05-29T05:06:47.672Z,2.50
2023-05-29T05:09:15.275Z,2.87
2023-05-29T05:11:42.848Z,3.20
2023-05-29T05:14:10.829Z,2.90
2023-05-29T05:16:38.339Z,3.30
2023-05-29T05:19:06.807Z,3.10
2023-05-29T05:21:34.404Z,2.97
2023-05-29T05:24:01.959Z,3.33
2023-05-29T05:26:29.548Z,3.03
2023-05-29T05:28:57.323Z,3.20
2023-05-29T05:31:26.010Z,3.10
2023-05-29T05:33:54.027Z,3.13
2023-05-29T05:36:21.736Z,3.00
2023-05-29T05:38:49.651Z,2.83
2023-05-29T05:41:17.240Z,3.17
2023-05-29T05:43:44.980Z,3.30
2023-05-29T05:46:12.652Z,2.90
2023-05-29T05:48:42.282Z,3.20
2023-05-29T05:51:09.954Z,3.27
2023-05-29T05:53:37.438Z,3.27
2023-05-29T05:56:05.331Z,3.40
2023-05-29T05:58:33.462Z,3.17
2023-05-29T06:01:02.306Z,3.53
2023-05-29T06:03:30.082Z,3.20
2023-05-29T06:05:57.754Z,3.53
2023-05-29T06:08:25.753Z,3.77
2023-05-29T06:10:53.946Z,3.70
2023-05-29T06:13:21.733Z,3.50
2023-05-29T06:15:49.329Z,3.10
2023-05-29T06:18:17.483Z,3.27
2023-05-29T06:20:45.511Z,3.57
2023-05-29T06:23:13.179Z,3.77
2023-05-29T06:25:40.735Z,3.80
2023-05-29T06:28:08.288Z,3.70
2023-05-29T06:30:35.885Z,3.47
2023-05-29T06:33:03.892Z,3.73
2023-05-29T06:35:31.465Z,3.13
2023-05-29T06:37:58.993Z,3.30
2023-05-29T06:40:26.680Z,3.40
2023-05-29T06:42:54.207Z,2.90
2023-05-29T06:45:21.872Z,2.97
2023-05-29T06:47:49.425Z,2.90
2023-05-29T06:50:17.009Z,2.70
2023-05-29T06:52:44.749Z,2.30
2023-05-29T06:55:12.413Z,1.93
2023-05-29T06:57:39.973Z,2.20
2023-05-29T07:00:09.031Z,1.90
2023-05-29T07:02:36.726Z,2.03
2023-05-29T07:05:04.938Z,1.43
2023-05-29T07:07:32.953Z,1.40
2023-05-29T07:10:00.932Z,1.57
2023-05-29T07:12:28.526Z,1.43
2023-05-29T07:14:56.069Z,1.73
2023-05-29T07:17:23.795Z,1.63
2023-05-29T07:19:51.485Z,1.40
2023-05-29T07:22:19.124Z,1.20
2023-05-29T07:24:47.253Z,1.40
2023-05-29T07:27:14.872Z,1.83
2023-05-29T07:29:42.650Z,1.33
2023-05-29T07:32:12.369Z,1.50
2023-05-29T07:34:40.104Z,1.40
2023-05-29T07:37:08.646Z,1.50
2023-05-29T07:39:37.218Z,1.40
2023-05-29T07:42:05.197Z,1.20
2023-05-29T07:44:33.579Z,1.20
2023-05-29T07:47:01.382Z,1.20
2023-05-29T07:49:29.169Z,1.20
2023-05-29T07:51:57.051Z,1.20
2023-05-29T07:54:24.722Z,1.70
2023-05-29T07:56:52.471Z,1.40
2023-05-29T07:59:20.171Z,1.50
2023-05-29T08:01:48.498Z,1.17
2023-05-29T08:04:16.417Z,1.30
2023-05-29T08:06:44.894Z,1.53
2023-05-29T08:09:12.895Z,1.20
2023-05-29T08:11:40.882Z,1.20
2023-05-29T08:14:08.409Z,1.30
2023-05-29T08:16:36.615Z,1.00
2023-05-29T08:19:05.171Z,1.33
2023-05-29T08:21:35.614Z,1.40
2023-05-29T08:24:06.306Z,1.40
2023-05-29T08:26:34.486Z,1.10
2023-05-29T08:29:02.382Z,1.23
2023-05-29T08:31:32.189Z,1.43
2023-05-29T08:33:59.734Z,1.13
2023-05-29T08:36:27.627Z,1.30
2023-05-29T08:38:55.415Z,1.47
2023-05-29T08:41:33.880Z,1.30
2023-05-29T08:44:07.433Z,1.50
2023-05-29T08:46:36.627Z,1.50
2023-05-29T08:49:04.956Z,1.40
2023-05-29T08:51:37.595Z,1.50
2023-05-29T08:54:05.510Z,1.70
2023-05-29T08:56:35.105Z,2.00
2023-05-29T08:59:06.762Z,1.73
2023-05-29T09:01:52.789Z,1.50
2023-05-29T09:04:20.429Z,1.57
2023-05-29T09:06:48.407Z,1.50
2023-05-29T09:09:16.269Z,1.67
2023-05-29T09:11:45.901Z,1.80
2023-05-29T09:14:43.995Z,1.60
2023-05-29T09:17:14.591Z,1.57
2023-05-29T09:19:42.553Z,2.38
2023-05-29T09:22:16.444Z,2.08
2023-05-29T09:24:49.871Z,1.60
2023-05-29T09:27:18.625Z,1.75
2023-05-29T09:29:47.902Z,1.63
2023-05-29T09:32:20.219Z,1.92
2023-05-29T09:34:48.118Z,1.55
2023-05-29T09:37:17.025Z,1.75
2023-05-29T09:39:50.159Z,1.55
2023-05-29T09:42:18.215Z,1.42
2023-05-29T09:44:53.457Z,1.80
2023-05-29T09:47:21.465Z,1.30
2023-05-29T09:49:49.167Z,1.80
2023-05-29T09:52:22.648Z,1.70
2023-05-29T09:54:52.146Z,1.60
2023-05-29T09:57:19.897Z,1.60
2023-05-29T09:59:52.716Z,1.60
2023-05-29T10:02:20.664Z,1.92
2023-05-29T10:04:51.382Z,1.80
2023-05-29T10:07:36.711Z,1.58
2023-05-29T10:10:10.540Z,1.80
2023-05-29T10:12:40.213Z,1.40
2023-05-29T10:15:15.776Z,1.58
2023-05-29T10:17:57.300Z,1.50
2023-05-29T10:20:25.162Z,1.67
2023-05-29T10:22:57.568Z,2.20
2023-05-29T10:25:28.816Z,2.00
2023-05-29T10:27:58.483Z,1.80
2023-05-29T10:30:31.370Z,2.20
2023-05-29T10:33:55.365Z,1.83
2023-05-29T10:36:27.803Z,1.90
2023-05-29T10:38:55.421Z,1.45
2023-05-29T10:41:33.008Z,2.10
2023-05-29T10:44:04.471Z,1.77
2023-05-29T10:46:44.762Z,2.17
2023-05-29T10:49:20.055Z,1.70
2023-05-29T10:51:52.311Z,2.70
2023-05-29T10:54:27.897Z,1.73
2023-05-29T10:57:02.482Z,2.00
2023-05-29T10:59:30.706Z,2.10
2023-05-29T11:01:59.400Z,1.88
2023-05-29T11:04:28.492Z,2.08
2023-05-29T11:06:56.505Z,2.05
2023-05-29T11:09:41.136Z,1.77
2023-05-29T11:12:37.379Z,2.10
2023-05-29T11:15:07.560Z,1.95
2023-05-29T11:17:46.842Z,1.70
2023-05-29T11:20:34.650Z,2.35
2023-05-29T11:23:09.606Z,1.80
2023-05-29T11:25:38.880Z,2.20
2023-05-29T11:28:11.919Z,1.77
2023-05-29T11:31:02.078Z,2.17
2023-05-29T11:33:29.999Z,2.45
2023-05-29T11:36:02.307Z,2.08
2023-05-29T11:38:30.780Z,2.13
2023-05-29T11:41:01.738Z,1.92
2023-05-29T11:43:29.365Z,2.30
2023-05-29T11:46:00.564Z,2.00
2023-05-29T11:48:28.402Z,2.38
2023-05-29T11:50:56.011Z,1.55
2023-05-29T11:53:24.399Z,1.60
2023-05-29T11:55:52.924Z,1.60
2023-05-29T11:58:22.962Z,1.80
2023-05-29T12:00:52.076Z,2.30
2023-05-29T12:03:19.911Z,2.10
2023-05-29T12:05:54.032Z,2.00
2023-05-29T12:08:26.767Z,2.25
2023-05-29T12:10:54.852Z,2.10
2023-05-29T12:13:23.264Z,1.63
2023-05-29T12:15:58.124Z,1.95
2023-05-29T12:18:27.169Z,2.08
2023-05-29T12:21:05.491Z,1.90
2023-05-29T12:23:33.223Z,1.73
2023-05-29T12:26:01.152Z,1.98
2023-05-29T12:28:28.761Z,2.00
2023-05-29T12:31:01.264Z,1.98
2023-05-29T12:33:35.260Z,2.10
2023-05-29T12:36:08.806Z,2.20
2023-05-29T12:38:59.257Z,2.03
2023-05-29T12:41:35.485Z,1.95
2023-05-29T12:44:07.050Z,1.90
2023-05-29T12:46:46.300Z,1.98
2023-05-29T12:49:20.687Z,2.20
2023-05-29T12:51:49.243Z,2.03
2023-05-29T12:54:18.347Z,2.17
2023-05-29T12:56:47.608Z,1.92
2023-05-29T12:59:16.801Z,1.98
2023-05-29T13:01:44.805Z,2.10
2023-05-29T13:04:13.969Z,2.03
2023-05-29T13:06:41.930Z,2.25
2023-05-29T13:09:10.048Z,2.10
2023-05-29T13:11:38.643Z,1.88
2023-05-29T13:14:06.571Z,1.80
2023-05-29T13:16:34.740Z,1.88
2023-05-29T13:19:02.339Z,1.92
2023-05-29T13:21:29.900Z,2.25
2023-05-29T13:23:57.585Z,1.90
2023-05-29T13:26:25.262Z,2.10
2023-05-29T13:28:53.158Z,1.80
2023-05-29T13:31:22.372Z,1.90
2023-05-29T13:33:50.091Z,1.77
2023-05-29T13:36:17.657Z,2.03
2023-05-29T13:38:45.582Z,2.10
2023-05-29T13:41:13.215Z,1.98
2023-05-29T13:43:44.988Z,2.70
2023-05-29T13:46:13.995Z,2.00
2023-05-29T13:48:41.599Z,1.92
2023-05-29T13:51:09.279Z,2.28
2023-05-29T13:53:36.851Z,2.25
2023-05-29T13:56:04.452Z,1.98
2023-05-29T13:58:32.037Z,2.03
2023-05-29T14:00:59.642Z,1.80
2023-05-29T14:03:30.428Z,2.00
2023-05-29T14:05:58.617Z,2.22
2023-05-29T14:08:26.539Z,2.45
2023-05-29T14:10:54.027Z,2.53
2023-05-29T14:13:21.565Z,2.65
2023-05-29T14:15:50.660Z,3.45
2023-05-29T14:18:18.239Z,2.03
2023-05-29T14:20:49.562Z,2.15
2023-05-29T14:23:19.362Z,2.10
2023-05-29T14:25:46.937Z,2.25
2023-05-29T14:28:14.648Z,2.03
2023-05-29T14:30:42.184Z,1.98
2023-05-29T14:33:09.850Z,2.03
2023-05-29T14:35:37.463Z,2.20
2023-05-29T14:38:05.045Z,2.30
2023-05-29T14:40:35.244Z,2.28
2023-05-29T14:43:03.069Z,2.10
2023-05-29T14:45:31.538Z,2.40
2023-05-29T14:47:59.089Z,2.10
2023-05-29T14:50:26.706Z,2.40
2023-05-29T14:52:54.290Z,2.50
2023-05-29T14:55:22.003Z,2.50
2023-05-29T14:57:49.541Z,2.20
2023-05-29T15:00:19.734Z,2.25
2023-05-29T15:02:48.014Z,2.47
2023-05-29T15:05:15.687Z,3.40
2023-05-29T15:07:43.243Z,2.85
2023-05-29T15:10:11.569Z,2.22
2023-05-29T15:12:39.107Z,2.47
2023-05-29T15:15:07.534Z,2.40
2023-05-29T15:17:35.133Z,2.42
2023-05-29T15:20:03.536Z,2.63
2023-05-29T15:22:31.160Z,2.30
2023-05-29T15:24:58.753Z,2.20
2023-05-29T15:27:29.488Z,2.72
2023-05-29T15:30:14.264Z,2.60
2023-05-29T15:32:43.504Z,2.38
2023-05-29T15:35:12.520Z,2.55
2023-05-29T15:37:41.421Z,2.50
2023-05-29T15:40:12.929Z,2.30
2023-05-29T15:42:41.740Z,2.60
2023-05-29T15:45:10.925Z,2.75
2023-05-29T15:47:38.451Z,2.40
2023-05-29T15:50:06.601Z,2.70
2023-05-29T15:52:46.440Z,2.10
2023-05-29T15:55:22.178Z,2.22
2023-05-29T15:57:49.821Z,2.42
2023-05-29T16:00:18.319Z,2.55
2023-05-29T16:02:45.977Z,2.08
2023-05-29T16:05:13.977Z,2.67
2023-05-29T16:07:42.456Z,2.58
2023-05-29T16:10:11.833Z,2.40
2023-05-29T16:12:39.432Z,2.40
2023-05-29T16:15:07.718Z,2.53
2023-05-29T16:17:35.692Z,2.55
2023-05-29T16:20:04.021Z,2.85
2023-05-29T16:22:41.800Z,2.72
2023-05-29T16:25:11.479Z,2.72
2023-05-29T16:27:39.902Z,2.88
2023-05-29T16:30:08.685Z,2.53
2023-05-29T16:32:36.938Z,3.45
2023-05-29T16:35:05.744Z,3.58
2023-05-29T16:37:33.481Z,2.92
2023-05-29T16:40:01.468Z,2.58
2023-05-29T16:42:29.088Z,3.00
2023-05-29T16:44:56.712Z,2.83
2023-05-29T16:47:24.349Z,2.60
2023-05-29T16:49:52.393Z,2.70
2023-05-29T16:52:22.864Z,2.30
2023-05-29T16:54:50.858Z,2.50
2023-05-29T16:57:21.402Z,2.63
2023-05-29T16:59:48.962Z,2.85
2023-05-29T17:02:16.617Z,2.50
2023-05-29T17:04:44.696Z,2.28
2023-05-29T17:07:12.394Z,2.60
2023-05-29T17:09:40.096Z,2.90
2023-05-29T17:12:08.411Z,2.60
2023-05-29T17:14:35.929Z,3.20
2023-05-29T17:17:04.011Z,2.55
2023-05-29T17:19:31.802Z,2.72
2023-05-29T17:22:00.863Z,2.85
2023-05-29T17:24:28.479Z,2.65
2023-05-29T17:26:56.006Z,2.40
2023-05-29T17:29:23.647Z,2.80
2023-05-29T17:31:51.165Z,3.15
2023-05-29T17:34:18.863Z,2.60
2023-05-29T17:36:46.522Z,2.53
2023-05-29T17:39:14.539Z,2.50
2023-05-29T17:41:42.034Z,2.53
2023-05-29T17:44:09.658Z,2.70
2023-05-29T17:46:37.291Z,2.25
2023-05-29T17:49:04.928Z,2.78
2023-05-29T17:51:32.499Z,2.60
2023-05-29T17:54:00.038Z,2.90
2023-05-29T17:56:27.747Z,2.53
2023-05-29T17:58:55.252Z,2.55
2023-05-29T18:01:22.940Z,2.97
2023-05-29T18:03:50.553Z,2.47
2023-05-29T18:06:18.377Z,2.60
2023-05-29T18:08:45.926Z,2.50
2023-05-29T18:11:13.672Z,2.60
2023-05-29T18:13:58.038Z,3.00
2023-05-29T18:16:49.771Z,3.13
2023-05-29T18:19:31.280Z,4.07
2023-05-29T18:22:25.144Z,3.90
2023-05-29T18:25:10.512Z,4.23
2023-05-29T18:27:59.619Z,3.87
2023-05-29T18:30:27.508Z,3.90
2023-05-29T18:32:55.143Z,4.23
2023-05-29T18:35:22.645Z,3.73
2023-05-29T18:37:51.275Z,3.77
2023-05-29T18:40:20.203Z,3.83
2023-05-29T18:42:47.906Z,3.83
2023-05-29T18:45:15.731Z,3.93
2023-05-29T18:47:43.392Z,4.13
2023-05-29T18:50:12.724Z,3.80
2023-05-29T18:52:41.385Z,4.00
2023-05-29T18:55:10.071Z,4.07
2023-05-29T18:57:38.566Z,4.90
2023-05-29T19:00:07.316Z,5.83
2023-05-29T19:02:39.378Z,4.73
2023-05-29T19:05:07.918Z,4.23
2023-05-29T19:07:36.535Z,4.03
2023-05-29T19:10:05.084Z,3.70
2023-05-29T19:12:32.737Z,3.90
2023-05-29T19:15:00.310Z,5.00
2023-05-29T19:17:28.154Z,3.90
2023-05-29T19:19:56.640Z,3.97
2023-05-29T19:22:24.214Z,3.97
2023-05-29T19:24:51.796Z,4.10
2023-05-29T19:27:20.133Z,3.87
2023-05-29T19:29:47.704Z,4.20
2023-05-29T19:32:20.017Z,4.90
2023-05-29T19:34:48.624Z,6.90
2023-05-29T19:37:16.171Z,5.23
2023-05-29T19:39:43.731Z,5.70
2023-05-29T19:42:11.257Z,4.80
2023-05-29T19:44:38.896Z,6.50
2023-05-29T19:47:06.819Z,5.03
2023-05-29T19:49:34.391Z,4.87
2023-05-29T19:52:03.803Z,5.60
2023-05-29T19:54:31.822Z,6.87
2023-05-29T19:56:59.324Z,4.93
2023-05-29T19:59:26.916Z,4.90
2023-05-29T20:01:54.398Z,4.47
2023-05-29T20:04:21.980Z,4.80
2023-05-29T20:06:49.556Z,4.27
2023-05-29T20:09:17.600Z,4.20
2023-05-29T20:11:45.172Z,4.20
2023-05-29T20:14:12.701Z,4.67
2023-05-29T20:16:40.352Z,4.30
2023-05-29T20:19:08.498Z,4.10
2023-05-29T20:21:36.230Z,4.03
2023-05-29T20:24:04.619Z,4.20
2023-05-29T20:26:34.896Z,4.23
2023-05-29T20:29:02.545Z,3.90
2023-05-29T20:31:30.169Z,4.00
2023-05-29T20:33:57.743Z,4.60
2023-05-29T20:36:27.181Z,5.20
2023-05-29T20:38:55.544Z,4.33
2023-05-29T20:41:24.113Z,3.93
2023-05-29T20:43:52.310Z,3.83
2023-05-29T20:46:20.823Z,3.70
2023-05-29T20:48:48.400Z,3.80
2023-05-29T20:51:17.058Z,4.27
2023-05-29T20:53:44.660Z,4.53
2023-05-29T20:56:12.482Z,4.10
2023-05-29T20:58:40.078Z,4.33
2023-05-29T21:01:08.285Z,3.53
2023-05-29T21:03:37.057Z,3.67
2023-05-29T21:06:08.014Z,3.80
2023-05-29T21:08:36.199Z,4.60
2023-05-29T21:11:05.376Z,4.00
2023-05-29T21:13:33.354Z,4.20
2023-05-29T21:16:01.150Z,3.90
2023-05-29T21:18:28.804Z,6.10
2023-05-29T21:20:56.618Z,4.90
2023-05-29T21:23:24.215Z,7.03
2023-05-29T21:25:53.348Z,4.40
2023-05-29T21:28:20.947Z,4.57
2023-05-29T21:30:48.439Z,4.60
2023-05-29T21:33:16.020Z,4.47
2023-05-29T21:35:45.414Z,4.33
2023-05-29T21:38:13.026Z,4.60
2023-05-29T21:40:40.604Z,4.70
2023-05-29T21:43:08.290Z,4.30
2023-05-29T21:45:36.015Z,4.63
2023-05-29T21:48:03.620Z,3.90
2023-05-29T21:50:31.568Z,4.10
2023-05-29T21:52:59.865Z,4.47
2023-05-29T21:55:28.128Z,3.50
2023-05-29T21:57:56.184Z,4.00
2023-05-29T22:00:27.223Z,3.70
2023-05-29T22:02:55.069Z,3.77
2023-05-29T22:05:22.905Z,4.20
2023-05-29T22:07:53.133Z,3.63
2023-05-29T22:10:21.302Z,3.77
2023-05-29T22:12:53.162Z,3.43
2023-05-29T22:15:21.376Z,4.83
2023-05-29T22:17:49.022Z,3.80
2023-05-29T22:20:17.396Z,3.40
2023-05-29T22:22:45.189Z,3.70
2023-05-29T22:25:16.706Z,3.50
2023-05-29T22:27:44.495Z,4.13
2023-05-29T22:30:12.698Z,3.83
2023-05-29T22:32:42.665Z,3.90
2023-05-29T22:35:13.649Z,3.30
2023-05-29T22:37:41.827Z,3.60
2023-05-29T22:40:15.930Z,3.83
2023-05-29T22:42:43.675Z,3.70
2023-05-29T22:45:12.242Z,3.67
2023-05-29T22:47:39.940Z,3.60
2023-05-29T22:50:08.247Z,3.70
2023-05-29T22:52:35.860Z,3.60
2023-05-29T22:55:04.220Z,4.00
2023-05-29T22:57:33.521Z,4.00
2023-05-29T23:00:01.332Z,3.53
2023-05-29T23:02:29.436Z,3.40
2023-05-29T23:04:57.230Z,4.97
2023-05-29T23:07:24.866Z,11.53
2023-05-29T23:09:52.755Z,3.90
2023-05-29T23:12:21.305Z,3.90
2023-05-29T23:14:48.924Z,3.57
2023-05-29T23:17:16.636Z,3.60
2023-05-29T23:19:44.148Z,3.63
2023-05-29T23:22:12.379Z,3.23
2023-05-29T23:24:39.821Z,3.60
2023-05-29T23:27:08.508Z,3.30
2023-05-29T23:29:36.083Z,3.40
2023-05-29T23:32:03.717Z,3.67
2023-05-29T23:34:31.915Z,3.90
2023-05-29T23:36:59.589Z,3.90
2023-05-29T23:39:27.066Z,3.40
2023-05-29T23:41:54.575Z,3.80
2023-05-29T23:44:22.383Z,3.47
2023-05-29T23:46:49.876Z,3.40
2023-05-29T23:49:17.442Z,3.40
2023-05-29T23:51:44.981Z,3.57
2023-05-29T23:54:12.609Z,3.33
2023-05-29T23:56:40.142Z,3.60
2023-05-29T23:59:08.067Z,3.43
